Time;durP1;ratioP1;P1;durP2;ratioP2;P2;SDS_P1;SDS_P2;PMS_P1;PMS_P2;Temp;Humidity;BMP_temperature;BMP_pressure;BME280_temperature;BME280_humidity;BME280_pressure;Samples;Min_cycle;Max_cycle;Signal;HPM_P1;HPM_P2
2022/01/30 00:00:33;;;;;;;3.05;2.38;;;;;;;;;;5069797;28;20260;-83
2022/01/30 00:02:59;;;;;;;2.78;2.50;;;;;;;;;;5053084;28;20177;-82
2022/01/30 00:05:27;;;;;;;2.40;2.20;;;;;;;;;;5068679;28;20214;-83
2022/01/30 00:07:53;;;;;;;2.90;2.22;;;;;;;;;;5065125;28;20449;-83
2022/01/30 00:10:19;;;;;;;1.93;1.73;;;;;;;;;;5066079;28;20236;-83
2022/01/30 00:12:50;;;;;;;2.00;1.65;;;;;;;;;;5064005;28;20434;-82
2022/01/30 00:15:18;;;;;;;2.50;2.30;;;;;;;;;;5071135;28;20197;-84
2022/01/30 00:17:54;;;;;;;2.67;2.28;;;;;;;;;;5051965;28;20168;-83
2022/01/30 00:20:24;;;;;;;2.65;2.05;;;;;;;;;;5076784;28;20181;-81
2022/01/30 00:23:33;;;;;;;2.38;1.90;;;;;;;;;;5063907;28;20206;-84
2022/01/30 00:25:49;;;;;;;3.00;2.20;;;;;;;;;;5054692;28;20192;-82
2022/01/30 00:28:17;;;;;;;2.80;1.52;;;;;;;;;;5074695;28;20169;-81
2022/01/30 00:30:43;;;;;;;3.13;1.60;;;;;;;;;;5068469;28;20180;-83
2022/01/30 00:33:09;;;;;;;2.95;2.10;;;;;;;;;;5058118;28;20658;-81
2022/01/30 00:35:36;;;;;;;2.53;2.20;;;;;;;;;;5068569;28;20199;-82
2022/01/30 00:38:02;;;;;;;2.75;1.80;;;;;;;;;;5074688;28;20503;-82
2022/01/30 00:40:28;;;;;;;2.42;1.75;;;;;;;;;;5067442;28;20180;-83
2022/01/30 00:42:54;;;;;;;2.03;1.93;;;;;;;;;;5087923;28;20249;-83
2022/01/30 00:45:20;;;;;;;2.67;2.22;;;;;;;;;;5088145;28;20470;-83
2022/01/30 00:47:46;;;;;;;1.80;1.70;;;;;;;;;;5072718;28;20176;-83
2022/01/30 00:50:12;;;;;;;2.30;2.10;;;;;;;;;;5072318;28;20229;-81
2022/01/30 00:52:38;;;;;;;2.05;1.83;;;;;;;;;;5065845;28;20184;-82
2022/01/30 00:55:04;;;;;;;2.20;2.00;;;;;;;;;;5083570;28;20172;-82
2022/01/30 00:57:30;;;;;;;3.28;2.25;;;;;;;;;;5072423;28;20185;-83
2022/01/30 00:59:56;;;;;;;2.30;1.80;;;;;;;;;;5076860;28;20188;-83
2022/01/30 01:02:22;;;;;;;2.67;2.07;;;;;;;;;;5088291;28;20207;-83
2022/01/30 01:04:49;;;;;;;2.35;2.15;;;;;;;;;;5087401;28;20431;-83
2022/01/30 01:07:20;;;;;;;2.63;1.90;;;;;;;;;;5078455;28;20221;-82
2022/01/30 01:10:04;;;;;;;3.22;2.65;;;;;;;;;;5090907;28;20199;-84
2022/01/30 01:12:58;;;;;;;4.78;2.80;;;;;;;;;;5076469;28;20184;-83
2022/01/30 01:25:52;;;;;;;2.55;2.35;;;;;;;;;;5087600;28;20220;-82
2022/01/30 01:28:18;;;;;;;2.92;2.40;;;;;;;;;;5072340;28;20172;-82
2022/01/30 01:30:45;;;;;;;3.75;2.97;;;;;;;;;;5075855;28;20184;-83
2022/01/30 01:33:11;;;;;;;5.60;2.45;;;;;;;;;;5091597;28;20363;-83
2022/01/30 01:35:37;;;;;;;5.20;2.78;;;;;;;;;;5075948;28;20187;-82
2022/01/30 01:38:04;;;;;;;3.95;2.70;;;;;;;;;;5078519;28;20307;-82
2022/01/30 01:40:30;;;;;;;5.88;2.55;;;;;;;;;;5087028;28;20184;-83
2022/01/30 01:43:00;;;;;;;3.10;2.80;;;;;;;;;;5089394;28;20180;-83
2022/01/30 01:45:33;;;;;;;3.42;3.00;;;;;;;;;;5091195;28;20198;-84
2022/01/30 01:48:02;;;;;;;6.22;2.83;;;;;;;;;;5096756;28;20545;-83
2022/01/30 01:50:43;;;;;;;3.83;2.67;;;;;;;;;;5100073;28;20219;-82
2022/01/30 01:53:10;;;;;;;4.93;3.20;;;;;;;;;;5090598;28;20534;-82
2022/01/30 01:55:36;;;;;;;7.05;3.92;;;;;;;;;;5086136;28;20200;-83
2022/01/30 01:58:03;;;;;;;7.63;3.08;;;;;;;;;;5090262;28;20242;-82
2022/01/30 02:00:29;;;;;;;6.65;2.80;;;;;;;;;;5096120;28;20221;-82
2022/01/30 02:02:55;;;;;;;3.78;2.85;;;;;;;;;;5097126;28;20599;-82
2022/01/30 02:05:27;;;;;;;6.57;3.50;;;;;;;;;;5091024;28;20208;-83
2022/01/30 02:10:31;;;;;;;3.78;3.38;;;;;;;;;;5089066;28;20191;-83
2022/01/30 02:13:11;;;;;;;5.03;3.13;;;;;;;;;;5104710;28;20168;-83
2022/01/30 02:23:56;;;;;;;6.00;3.60;;;;;;;;;;5096564;28;20184;-83
2022/01/30 02:24:00;;;;;;;5.65;3.28;;;;;;;;;;5090944;28;20187;-83
2022/01/30 02:26:27;;;;;;;5.45;2.92;;;;;;;;;;5091940;28;20188;-82
2022/01/30 02:28:55;;;;;;;6.00;2.80;;;;;;;;;;5086353;28;20181;-82
2022/01/30 02:31:22;;;;;;;4.88;3.15;;;;;;;;;;5086960;28;20188;-83
2022/01/30 02:33:48;;;;;;;5.97;4.65;;;;;;;;;;5101360;28;20172;-83
2022/01/30 02:36:14;;;;;;;5.53;3.53;;;;;;;;;;5095558;28;20219;-83
2022/01/30 02:38:40;;;;;;;5.28;3.08;;;;;;;;;;5097374;28;20553;-81
2022/01/30 02:41:06;;;;;;;3.87;3.40;;;;;;;;;;5089681;28;20233;-81
2022/01/30 02:43:38;;;;;;;9.77;3.60;;;;;;;;;;5085894;28;20419;-81
2022/01/30 02:48:45;;;;;;;7.03;3.60;;;;;;;;;;5097592;28;20997;-84
2022/01/30 02:51:14;;;;;;;7.65;3.20;;;;;;;;;;5097926;28;20186;-82
2022/01/30 02:53:44;;;;;;;5.90;3.10;;;;;;;;;;5097626;28;20183;-81
2022/01/30 02:56:10;;;;;;;7.30;3.30;;;;;;;;;;5089950;28;20186;-82
2022/01/30 02:58:36;;;;;;;8.95;4.03;;;;;;;;;;5085238;28;20191;-82
2022/01/30 03:01:02;;;;;;;7.32;3.40;;;;;;;;;;5102746;28;20204;-82
2022/01/30 03:03:28;;;;;;;5.95;3.33;;;;;;;;;;5091759;28;20184;-82
2022/01/30 03:05:54;;;;;;;7.55;4.05;;;;;;;;;;5090789;28;20183;-82
2022/01/30 03:08:20;;;;;;;10.10;4.20;;;;;;;;;;5085910;28;20172;-82
2022/01/30 03:10:46;;;;;;;5.55;3.75;;;;;;;;;;5100616;28;20450;-82
2022/01/30 03:13:12;;;;;;;8.40;3.78;;;;;;;;;;5086928;28;20164;-82
2022/01/30 03:15:38;;;;;;;7.28;3.60;;;;;;;;;;5087591;28;20567;-82
2022/01/30 03:18:04;;;;;;;7.80;3.33;;;;;;;;;;5093805;28;20188;-81
2022/01/30 03:20:30;;;;;;;5.45;2.75;;;;;;;;;;5098207;28;20463;-82
2022/01/30 03:22:58;;;;;;;4.93;3.60;;;;;;;;;;5087643;28;20199;-82
2022/01/30 03:25:25;;;;;;;4.28;2.85;;;;;;;;;;5086486;28;20438;-82
2022/01/30 03:27:53;;;;;;;4.82;3.15;;;;;;;;;;5089892;28;20169;-81
2022/01/30 03:30:27;;;;;;;5.82;3.42;;;;;;;;;;5091455;28;20177;-82
2022/01/30 03:32:53;;;;;;;7.15;3.28;;;;;;;;;;5088932;28;20275;-82
2022/01/30 03:35:19;;;;;;;5.85;3.15;;;;;;;;;;5090381;28;20172;-81
2022/01/30 03:37:45;;;;;;;7.95;3.45;;;;;;;;;;5091306;28;20250;-82
2022/01/30 03:40:12;;;;;;;5.57;3.92;;;;;;;;;;5097695;28;20172;-82
2022/01/30 03:42:38;;;;;;;6.95;3.35;;;;;;;;;;5087799;28;20212;-81
2022/01/30 03:45:05;;;;;;;7.88;4.35;;;;;;;;;;5089950;28;20183;-81
2022/01/30 03:47:31;;;;;;;4.75;3.25;;;;;;;;;;5090549;28;20207;-82
2022/01/30 03:49:57;;;;;;;6.22;3.47;;;;;;;;;;5085121;28;20224;-81
2022/01/30 03:52:23;;;;;;;6.30;3.27;;;;;;;;;;5085072;28;20183;-82
2022/01/30 03:54:49;;;;;;;8.82;3.63;;;;;;;;;;5089582;28;20927;-82
2022/01/30 03:57:15;;;;;;;6.78;4.80;;;;;;;;;;5088747;28;20180;-82
2022/01/30 03:59:41;;;;;;;4.68;3.22;;;;;;;;;;5088865;28;20180;-81
2022/01/30 04:02:07;;;;;;;8.83;4.13;;;;;;;;;;5087943;28;20219;-82
2022/01/30 04:04:33;;;;;;;9.80;4.00;;;;;;;;;;5084201;28;20414;-82
2022/01/30 04:06:59;;;;;;;9.82;4.35;;;;;;;;;;5100988;28;20418;-82
2022/01/30 04:09:26;;;;;;;5.82;3.35;;;;;;;;;;5095983;28;20251;-82
2022/01/30 04:11:53;;;;;;;6.55;3.85;;;;;;;;;;5093869;28;20206;-81
2022/01/30 04:14:19;;;;;;;6.80;3.92;;;;;;;;;;5090289;28;20179;-82
2022/01/30 04:16:45;;;;;;;6.13;3.67;;;;;;;;;;5083114;28;20184;-80
2022/01/30 04:19:11;;;;;;;5.38;3.58;;;;;;;;;;5098921;28;20446;-81
2022/01/30 04:21:37;;;;;;;6.25;4.18;;;;;;;;;;5090758;28;20283;-82
2022/01/30 04:24:03;;;;;;;8.70;4.88;;;;;;;;;;5089382;28;20211;-82
2022/01/30 04:26:29;;;;;;;4.00;3.20;;;;;;;;;;5089384;28;20194;-82
2022/01/30 04:28:56;;;;;;;6.13;4.35;;;;;;;;;;5084240;28;20180;-82
2022/01/30 04:31:22;;;;;;;4.32;3.97;;;;;;;;;;5085622;28;20184;-81
2022/01/30 04:33:48;;;;;;;4.55;3.80;;;;;;;;;;5089549;28;20561;-81
2022/01/30 04:36:19;;;;;;;5.15;4.47;;;;;;;;;;5094005;28;20181;-81
2022/01/30 04:39:11;;;;;;;11.57;4.68;;;;;;;;;;5076968;28;20224;-81
2022/01/30 04:52:54;;;;;;;15.73;4.75;;;;;;;;;;4989137;28;20191;-80
2022/01/30 05:01:08;;;;;;;7.70;2.25;;;;;;;;;;4929741;29;20235;-80
2022/01/30 05:03:56;;;;;;;11.30;3.15;;;;;;;;;;4928426;29;20190;-81
2022/01/30 05:06:32;;;;;;;9.05;2.70;;;;;;;;;;4902505;29;20284;-80
2022/01/30 05:08:59;;;;;;;10.70;3.20;;;;;;;;;;4903122;29;20245;-79
2022/01/30 05:11:25;;;;;;;11.88;2.90;;;;;;;;;;4918284;29;20201;-81
2022/01/30 05:13:51;;;;;;;7.25;2.38;;;;;;;;;;4912858;29;20205;-81
2022/01/30 05:16:19;;;;;;;8.00;2.63;;;;;;;;;;4923050;29;20197;-81
2022/01/30 05:18:45;;;;;;;7.35;2.80;;;;;;;;;;4928980;29;20182;-81
2022/01/30 05:21:11;;;;;;;7.50;2.70;;;;;;;;;;4927818;29;20474;-80
2022/01/30 05:23:37;;;;;;;7.13;2.42;;;;;;;;;;4927453;29;20205;-81
2022/01/30 05:26:06;;;;;;;9.30;3.40;;;;;;;;;;4912221;29;20499;-81
2022/01/30 05:28:33;;;;;;;5.88;1.90;;;;;;;;;;4913576;28;20184;-79
2022/01/30 05:30:59;;;;;;;10.70;2.75;;;;;;;;;;4974451;28;20172;-80
2022/01/30 05:33:25;;;;;;;7.93;2.50;;;;;;;;;;5005400;28;20204;-80
2022/01/30 05:35:51;;;;;;;7.38;1.83;;;;;;;;;;5065399;28;20256;-81
2022/01/30 05:38:18;;;;;;;11.20;2.72;;;;;;;;;;5070941;28;20232;-81
2022/01/30 05:40:44;;;;;;;8.50;2.08;;;;;;;;;;5066654;28;20668;-81
2022/01/30 05:43:11;;;;;;;8.63;3.63;;;;;;;;;;5054270;28;20177;-80
2022/01/30 05:45:41;;;;;;;8.38;3.75;;;;;;;;;;5052417;28;20192;-80
2022/01/30 05:48:15;;;;;;;9.80;2.25;;;;;;;;;;5056040;28;20177;-80
2022/01/30 05:50:42;;;;;;;7.88;2.28;;;;;;;;;;5056050;28;20245;-81
2022/01/30 05:53:08;;;;;;;7.30;3.03;;;;;;;;;;5069695;28;20172;-80
2022/01/30 05:55:34;;;;;;;4.78;2.17;;;;;;;;;;5071854;28;20172;-80
2022/01/30 05:58:00;;;;;;;8.07;2.13;;;;;;;;;;5070078;28;20180;-81
2022/01/30 06:00:27;;;;;;;11.35;2.65;;;;;;;;;;5070698;28;20192;-81
2022/01/30 06:02:53;;;;;;;7.90;3.03;;;;;;;;;;5055501;28;20177;-80
2022/01/30 06:05:21;;;;;;;10.77;2.20;;;;;;;;;;5070506;28;20185;-80
2022/01/30 06:07:51;;;;;;;5.68;2.28;;;;;;;;;;5073766;28;20586;-81
2022/01/30 06:10:18;;;;;;;13.32;3.20;;;;;;;;;;5051629;28;20213;-81
2022/01/30 06:12:45;;;;;;;17.92;3.13;;;;;;;;;;5054298;28;20173;-81
2022/01/30 06:15:13;;;;;;;9.57;2.70;;;;;;;;;;5069671;28;20185;-80
2022/01/30 06:17:39;;;;;;;13.93;3.55;;;;;;;;;;5070631;28;22347;-81
2022/01/30 06:20:05;;;;;;;8.43;2.90;;;;;;;;;;5054184;28;20268;-81
2022/01/30 06:22:31;;;;;;;10.38;3.13;;;;;;;;;;5049788;28;20201;-81
2022/01/30 06:24:57;;;;;;;9.30;3.55;;;;;;;;;;5068870;28;20173;-81
2022/01/30 06:27:23;;;;;;;7.30;2.75;;;;;;;;;;5054981;28;20223;-81
2022/01/30 06:29:49;;;;;;;9.07;2.28;;;;;;;;;;5070195;28;20181;-81
2022/01/30 06:32:16;;;;;;;8.10;2.70;;;;;;;;;;5069972;28;20245;-81
2022/01/30 06:34:42;;;;;;;9.23;3.22;;;;;;;;;;5065803;28;20235;-81
2022/01/30 06:37:08;;;;;;;17.75;3.25;;;;;;;;;;5065769;28;20611;-80
2022/01/30 06:39:34;;;;;;;12.02;2.55;;;;;;;;;;5056822;28;20188;-80
2022/01/30 06:42:00;;;;;;;6.57;3.13;;;;;;;;;;5051680;28;20201;-81
2022/01/30 06:44:26;;;;;;;5.75;2.17;;;;;;;;;;5056282;28;20181;-81
2022/01/30 06:46:52;;;;;;;6.53;2.60;;;;;;;;;;5068337;28;20185;-81
2022/01/30 06:49:18;;;;;;;9.30;2.70;;;;;;;;;;5052975;28;20172;-81
2022/01/30 06:51:44;;;;;;;6.40;2.87;;;;;;;;;;5054905;28;20168;-81
2022/01/30 06:54:10;;;;;;;9.60;2.38;;;;;;;;;;5054970;28;20530;-81
2022/01/30 06:56:39;;;;;;;4.82;2.85;;;;;;;;;;5057816;28;20254;-81
2022/01/30 06:59:05;;;;;;;8.55;2.42;;;;;;;;;;5065100;28;20653;-80
2022/01/30 07:01:31;;;;;;;9.38;2.15;;;;;;;;;;5048484;28;20227;-81
2022/01/30 07:03:57;;;;;;;5.13;2.57;;;;;;;;;;5064019;28;20192;-81
2022/01/30 07:06:23;;;;;;;7.47;4.10;;;;;;;;;;5051945;28;20435;-81
2022/01/30 07:08:48;;;;;;;8.15;2.50;;;;;;;;;;5053159;28;20439;-81
2022/01/30 07:11:15;;;;;;;9.10;2.60;;;;;;;;;;5047647;28;20181;-81
2022/01/30 07:13:41;;;;;;;5.15;2.22;;;;;;;;;;5064386;28;20252;-81
2022/01/30 07:16:07;;;;;;;11.48;2.55;;;;;;;;;;5060894;28;20176;-81
2022/01/30 07:18:33;;;;;;;11.80;2.97;;;;;;;;;;5076667;28;20215;-81
2022/01/30 07:20:59;;;;;;;10.10;2.95;;;;;;;;;;5059899;28;20205;-81
2022/01/30 07:23:25;;;;;;;4.53;2.00;;;;;;;;;;5054374;28;20172;-81
2022/01/30 07:25:51;;;;;;;10.50;2.60;;;;;;;;;;5046701;28;20219;-81
2022/01/30 07:28:17;;;;;;;8.35;2.70;;;;;;;;;;5049864;28;20173;-81
2022/01/30 07:30:43;;;;;;;8.57;3.45;;;;;;;;;;5054536;28;20175;-81
2022/01/30 07:33:09;;;;;;;10.20;2.50;;;;;;;;;;5053566;28;20185;-81
2022/01/30 07:35:39;;;;;;;6.40;2.58;;;;;;;;;;5053611;28;20176;-81
2022/01/30 07:38:05;;;;;;;4.32;2.38;;;;;;;;;;5076193;28;20220;-81
2022/01/30 07:40:33;;;;;;;4.53;2.13;;;;;;;;;;5085942;28;20192;-81
2022/01/30 07:42:59;;;;;;;7.03;2.20;;;;;;;;;;5070543;28;20168;-80
2022/01/30 07:45:26;;;;;;;11.15;3.05;;;;;;;;;;5073127;28;20246;-80
2022/01/30 07:47:52;;;;;;;5.70;2.35;;;;;;;;;;5088149;28;20530;-80
2022/01/30 07:50:19;;;;;;;8.38;3.00;;;;;;;;;;5082651;28;20191;-80
2022/01/30 07:52:45;;;;;;;7.65;2.25;;;;;;;;;;5084689;28;20183;-81
2022/01/30 07:55:11;;;;;;;7.20;2.97;;;;;;;;;;5085292;28;20656;-81
2022/01/30 07:57:37;;;;;;;8.50;2.05;;;;;;;;;;5098892;28;20206;-81
2022/01/30 08:00:06;;;;;;;7.18;2.00;;;;;;;;;;5094269;28;20309;-81
2022/01/30 08:02:32;;;;;;;8.80;2.13;;;;;;;;;;5073006;28;20733;-81
2022/01/30 08:04:58;;;;;;;8.05;2.50;;;;;;;;;;5070375;28;20175;-80
2022/01/30 08:07:26;;;;;;;12.63;3.30;;;;;;;;;;5081712;28;20186;-84
2022/01/30 08:09:52;;;;;;;12.20;3.92;;;;;;;;;;5072674;28;20188;-85
2022/01/30 08:12:19;;;;;;;8.00;2.20;;;;;;;;;;5080205;28;20633;-85
2022/01/30 08:14:45;;;;;;;9.15;2.53;;;;;;;;;;5078752;28;20184;-85
2022/01/30 08:17:18;;;;;;;11.25;2.40;;;;;;;;;;5068326;28;20221;-85
2022/01/30 08:19:46;;;;;;;8.52;2.90;;;;;;;;;;5079227;28;20215;-86
2022/01/30 08:22:12;;;;;;;15.02;3.67;;;;;;;;;;5098462;28;20199;-85
2022/01/30 08:24:38;;;;;;;5.60;2.73;;;;;;;;;;5088186;28;20184;-86
2022/01/30 08:27:05;;;;;;;8.10;3.17;;;;;;;;;;5088542;28;20450;-85
2022/01/30 08:29:31;;;;;;;6.70;2.65;;;;;;;;;;5072019;28;20173;-85
2022/01/30 08:31:58;;;;;;;9.82;2.53;;;;;;;;;;5094479;28;20192;-85
2022/01/30 08:34:24;;;;;;;10.10;2.67;;;;;;;;;;5082361;28;20187;-85
2022/01/30 08:36:50;;;;;;;8.60;2.85;;;;;;;;;;5074260;28;20192;-85
2022/01/30 08:39:16;;;;;;;8.45;2.80;;;;;;;;;;5070831;28;20881;-86
2022/01/30 08:41:42;;;;;;;13.32;2.85;;;;;;;;;;5050244;28;20211;-84
2022/01/30 08:44:08;;;;;;;8.20;2.22;;;;;;;;;;5081466;28;20180;-85
2022/01/30 08:46:37;;;;;;;8.73;3.20;;;;;;;;;;5060057;28;20234;-86
2022/01/30 08:49:03;;;;;;;8.85;3.10;;;;;;;;;;5063869;28;20172;-85
2022/01/30 08:51:29;;;;;;;8.68;3.38;;;;;;;;;;5054402;28;20188;-85
2022/01/30 08:53:55;;;;;;;6.53;3.78;;;;;;;;;;5056789;28;20184;-85
2022/01/30 08:56:24;;;;;;;8.45;3.20;;;;;;;;;;5065556;28;20180;-84
2022/01/30 08:58:50;;;;;;;7.90;3.05;;;;;;;;;;5063426;28;20181;-85
2022/01/30 09:01:16;;;;;;;4.72;2.70;;;;;;;;;;5054575;28;20234;-86
2022/01/30 09:03:43;;;;;;;7.25;2.55;;;;;;;;;;5066275;28;20176;-84
2022/01/30 09:06:09;;;;;;;5.38;3.10;;;;;;;;;;5073767;28;20173;-85
2022/01/30 09:08:35;;;;;;;7.25;3.00;;;;;;;;;;5052078;28;20176;-84
2022/01/30 09:11:01;;;;;;;6.32;3.55;;;;;;;;;;5063572;28;20184;-84
2022/01/30 09:13:28;;;;;;;10.80;3.53;;;;;;;;;;5048292;28;20185;-85
2022/01/30 09:15:58;;;;;;;9.13;3.05;;;;;;;;;;5067142;28;20582;-85
2022/01/30 09:18:26;;;;;;;10.65;3.22;;;;;;;;;;5052980;28;20185;-84
2022/01/30 09:20:52;;;;;;;13.38;3.25;;;;;;;;;;5075862;28;20201;-85
2022/01/30 09:23:18;;;;;;;7.60;3.75;;;;;;;;;;5056161;28;20183;-86
2022/01/30 09:25:44;;;;;;;10.52;4.05;;;;;;;;;;5055660;28;20188;-84
2022/01/30 09:28:10;;;;;;;8.57;2.97;;;;;;;;;;5066889;28;20226;-84
2022/01/30 09:30:36;;;;;;;7.35;2.95;;;;;;;;;;5062049;28;20306;-84
2022/01/30 09:33:02;;;;;;;11.57;3.08;;;;;;;;;;5060110;28;20260;-85
2022/01/30 09:35:28;;;;;;;9.85;4.13;;;;;;;;;;5056008;28;20184;-85
2022/01/30 09:37:54;;;;;;;6.80;2.88;;;;;;;;;;5074944;28;20220;-85
2022/01/30 09:40:20;;;;;;;8.45;3.05;;;;;;;;;;5084993;28;20187;-86
2022/01/30 09:42:46;;;;;;;13.48;3.35;;;;;;;;;;5085344;28;20216;-84
2022/01/30 09:45:13;;;;;;;9.07;3.17;;;;;;;;;;5082539;28;20168;-84
2022/01/30 09:47:40;;;;;;;11.52;3.03;;;;;;;;;;5080516;28;20191;-84
2022/01/30 09:50:07;;;;;;;13.07;3.03;;;;;;;;;;5084476;28;20196;-84
2022/01/30 09:52:33;;;;;;;13.35;2.83;;;;;;;;;;5069639;28;20191;-84
2022/01/30 09:54:59;;;;;;;8.88;3.42;;;;;;;;;;5086569;28;20190;-84
2022/01/30 09:57:25;;;;;;;9.25;2.95;;;;;;;;;;5092767;28;20626;-84
2022/01/30 09:59:51;;;;;;;11.93;3.55;;;;;;;;;;5075582;28;20192;-85
2022/01/30 10:02:18;;;;;;;9.85;2.95;;;;;;;;;;5075625;28;20228;-84
2022/01/30 10:04:44;;;;;;;16.45;3.22;;;;;;;;;;5069602;28;20188;-84
2022/01/30 10:07:14;;;;;;;7.18;2.95;;;;;;;;;;5083265;28;20172;-84
2022/01/30 10:09:49;;;;;;;13.45;2.90;;;;;;;;;;5072498;28;20197;-83
2022/01/30 10:12:19;;;;;;;6.28;2.95;;;;;;;;;;5076219;28;20175;-84
2022/01/30 10:15:04;;;;;;;5.60;2.47;;;;;;;;;;5090460;28;20184;-84
2022/01/30 10:17:37;;;;;;;6.75;3.25;;;;;;;;;;5075376;28;20195;-84
2022/01/30 10:20:06;;;;;;;11.13;3.00;;;;;;;;;;5071545;28;20180;-88
2022/01/30 10:22:33;;;;;;;13.93;5.85;;;;;;;;;;5070624;28;20611;-84
2022/01/30 10:24:59;;;;;;;9.85;3.20;;;;;;;;;;5085479;28;20642;-85
2022/01/30 10:27:26;;;;;;;10.68;2.25;;;;;;;;;;5092625;28;20188;-84
2022/01/30 10:30:03;;;;;;;7.63;2.35;;;;;;;;;;5074192;28;20177;-84
2022/01/30 10:32:30;;;;;;;4.75;2.42;;;;;;;;;;5090167;28;20201;-84
2022/01/30 10:35:01;;;;;;;10.30;2.75;;;;;;;;;;5069521;28;20191;-85
2022/01/30 10:37:27;;;;;;;12.55;3.40;;;;;;;;;;5070819;28;20304;-84
2022/01/30 10:39:53;;;;;;;8.85;2.83;;;;;;;;;;5090184;28;20185;-85
2022/01/30 10:42:31;;;;;;;6.30;2.80;;;;;;;;;;5091405;28;20230;-84
2022/01/30 10:44:58;;;;;;;6.75;2.33;;;;;;;;;;5090491;28;20176;-84
2022/01/30 10:47:24;;;;;;;7.10;2.13;;;;;;;;;;5090694;28;20259;-85
2022/01/30 10:49:50;;;;;;;8.75;3.03;;;;;;;;;;5085265;28;20171;-84
2022/01/30 10:52:16;;;;;;;14.00;3.30;;;;;;;;;;5089517;28;20176;-86
2022/01/30 10:54:42;;;;;;;10.07;2.55;;;;;;;;;;5090042;28;21206;-85
2022/01/30 10:57:09;;;;;;;11.43;3.20;;;;;;;;;;5089520;28;20181;-84
2022/01/30 10:59:43;;;;;;;7.40;2.78;;;;;;;;;;5091753;28;20183;-85
2022/01/30 11:02:15;;;;;;;8.35;2.88;;;;;;;;;;5090014;28;20199;-85
2022/01/30 11:04:41;;;;;;;12.80;3.38;;;;;;;;;;5083985;28;20243;-85
2022/01/30 11:07:07;;;;;;;12.77;3.10;;;;;;;;;;5102839;28;20187;-85
2022/01/30 11:12:07;;;;;;;17.17;2.83;;;;;;;;;;5089653;28;20688;-85
2022/01/30 11:14:40;;;;;;;11.90;4.32;;;;;;;;;;5087323;28;20203;-84
2022/01/30 11:17:09;;;;;;;9.85;2.70;;;;;;;;;;5089760;28;20278;-84
2022/01/30 11:19:39;;;;;;;11.57;2.95;;;;;;;;;;5095404;28;20263;-85
2022/01/30 11:22:09;;;;;;;6.78;2.70;;;;;;;;;;5102534;28;20219;-84
2022/01/30 11:24:44;;;;;;;5.68;2.70;;;;;;;;;;5089810;28;20176;-84
2022/01/30 11:27:10;;;;;;;11.48;3.13;;;;;;;;;;5087719;28;20187;-85
2022/01/30 11:29:37;;;;;;;9.48;3.15;;;;;;;;;;5091110;28;20187;-84
2022/01/30 11:32:07;;;;;;;5.72;2.90;;;;;;;;;;5087337;28;20181;-85
2022/01/30 11:34:34;;;;;;;10.10;3.03;;;;;;;;;;5084983;28;20168;-84
2022/01/30 11:37:00;;;;;;;6.13;2.63;;;;;;;;;;5100692;28;20191;-84
2022/01/30 11:39:26;;;;;;;7.90;3.40;;;;;;;;;;5057536;28;20216;-84
2022/01/30 11:42:05;;;;;;;14.27;3.50;;;;;;;;;;5053240;28;20212;-84
2022/01/30 11:44:31;;;;;;;9.63;3.45;;;;;;;;;;5056274;28;20246;-87
2022/01/30 11:46:58;;;;;;;6.60;3.33;;;;;;;;;;5053402;28;20185;-86
2022/01/30 11:49:43;;;;;;;8.10;3.25;;;;;;;;;;5064208;28;20180;-86
2022/01/30 11:52:10;;;;;;;12.45;3.35;;;;;;;;;;5067853;28;20227;-84
2022/01/30 11:54:36;;;;;;;10.98;2.55;;;;;;;;;;5063876;28;20285;-86
2022/01/30 11:57:02;;;;;;;11.13;3.23;;;;;;;;;;5058219;28;20178;-84
2022/01/30 11:59:39;;;;;;;8.13;2.70;;;;;;;;;;5078612;28;20522;-86
2022/01/30 12:02:34;;;;;;;8.95;3.45;;;;;;;;;;5056226;28;20260;-83
2022/01/30 12:05:01;;;;;;;7.80;3.03;;;;;;;;;;5047578;28;20181;-84
2022/01/30 12:07:36;;;;;;;11.05;3.17;;;;;;;;;;5047902;28;20603;-84
2022/01/30 12:10:26;;;;;;;7.63;2.55;;;;;;;;;;5053316;28;20176;-84
2022/01/30 12:12:53;;;;;;;9.77;2.85;;;;;;;;;;5059752;28;20184;-83
2022/01/30 12:15:38;;;;;;;6.68;2.90;;;;;;;;;;5062372;28;20188;-84
2022/01/30 12:18:08;;;;;;;7.78;2.80;;;;;;;;;;5063151;28;20192;-84
2022/01/30 12:20:53;;;;;;;10.70;3.63;;;;;;;;;;5079844;28;20230;-84
2022/01/30 12:23:30;;;;;;;7.53;3.05;;;;;;;;;;5062746;28;20184;-84
2022/01/30 12:26:03;;;;;;;8.77;2.05;;;;;;;;;;5053602;28;20181;-86
2022/01/30 12:28:42;;;;;;;7.68;2.95;;;;;;;;;;5055334;28;20187;-85
2022/01/30 12:31:28;;;;;;;9.52;2.80;;;;;;;;;;5068424;28;20266;-84
2022/01/30 12:33:58;;;;;;;6.43;2.65;;;;;;;;;;5064116;28;20183;-83
2022/01/30 12:36:24;;;;;;;11.10;2.90;;;;;;;;;;5058963;28;20215;-85
2022/01/30 12:38:55;;;;;;;9.30;3.45;;;;;;;;;;5081313;28;20215;-84
2022/01/30 12:41:22;;;;;;;9.65;3.05;;;;;;;;;;5097756;28;20200;-84
2022/01/30 12:43:52;;;;;;;15.55;3.05;;;;;;;;;;5083754;28;20251;-84
2022/01/30 12:46:18;;;;;;;8.85;2.95;;;;;;;;;;5097380;28;20199;-84
2022/01/30 12:48:58;;;;;;;6.63;3.38;;;;;;;;;;5091632;28;20249;-83
2022/01/30 12:51:24;;;;;;;6.97;2.95;;;;;;;;;;5087023;28;20234;-84
2022/01/30 12:53:51;;;;;;;10.27;3.75;;;;;;;;;;5090851;28;20272;-84
2022/01/30 12:56:17;;;;;;;13.02;3.33;;;;;;;;;;5091877;28;20182;-84
2022/01/30 12:58:45;;;;;;;6.95;2.67;;;;;;;;;;5087582;28;20176;-82
2022/01/30 13:01:12;;;;;;;12.77;3.45;;;;;;;;;;5099595;28;20191;-84
2022/01/30 13:03:38;;;;;;;10.85;2.78;;;;;;;;;;5091841;28;20183;-82
2022/01/30 13:06:05;;;;;;;7.40;2.72;;;;;;;;;;5091048;28;20211;-83
2022/01/30 13:08:53;;;;;;;6.40;2.95;;;;;;;;;;5093803;28;20175;-85
2022/01/30 13:11:21;;;;;;;8.88;3.40;;;;;;;;;;5092488;28;20206;-85
2022/01/30 13:13:55;;;;;;;12.40;3.95;;;;;;;;;;5089541;28;20179;-84
2022/01/30 13:16:28;;;;;;;12.18;3.67;;;;;;;;;;5100474;28;20207;-85
2022/01/30 13:18:54;;;;;;;14.73;3.85;;;;;;;;;;5102306;28;20230;-86
2022/01/30 13:21:22;;;;;;;13.77;3.45;;;;;;;;;;5113564;28;20199;-84
2022/01/30 13:23:48;;;;;;;3.65;2.63;;;;;;;;;;5102493;28;20210;-85
2022/01/30 13:26:27;;;;;;;9.87;3.40;;;;;;;;;;5100893;28;20271;-84
2022/01/30 13:28:53;;;;;;;5.93;2.30;;;;;;;;;;5088320;28;20512;-83
2022/01/30 13:31:19;;;;;;;6.28;2.45;;;;;;;;;;5095306;28;20239;-82
2022/01/30 13:33:45;;;;;;;6.25;3.08;;;;;;;;;;5093240;28;20176;-84
2022/01/30 13:36:24;;;;;;;9.37;2.50;;;;;;;;;;5092810;28;20188;-85
2022/01/30 13:38:50;;;;;;;9.80;3.17;;;;;;;;;;5089864;28;20515;-83
2022/01/30 13:41:28;;;;;;;10.80;3.00;;;;;;;;;;5101577;28;20256;-85
2022/01/30 13:44:00;;;;;;;5.97;2.90;;;;;;;;;;5099561;28;20270;-83
2022/01/30 13:49:12;;;;;;;7.97;3.35;;;;;;;;;;5095190;28;20194;-84
2022/01/30 13:51:38;;;;;;;3.13;2.00;;;;;;;;;;5096874;28;20215;-84
2022/01/30 13:54:12;;;;;;;10.40;2.97;;;;;;;;;;5095349;28;20208;-84
2022/01/30 13:56:38;;;;;;;7.38;3.15;;;;;;;;;;5101153;28;20468;-85
2022/01/30 13:59:03;;;;;;;5.15;2.70;;;;;;;;;;5091147;28;20183;-83
2022/01/30 14:01:33;;;;;;;5.67;2.33;;;;;;;;;;5092335;28;20257;-84
2022/01/30 14:04:04;;;;;;;6.88;2.75;;;;;;;;;;5100913;28;20421;-83
2022/01/30 14:06:33;;;;;;;8.10;2.60;;;;;;;;;;5094862;28;20180;-83
2022/01/30 14:09:00;;;;;;;3.28;2.05;;;;;;;;;;5097555;28;20194;-84
2022/01/30 14:11:30;;;;;;;8.68;3.05;;;;;;;;;;5091943;28;20198;-83
2022/01/30 14:14:04;;;;;;;7.47;3.40;;;;;;;;;;5088223;28;20195;-84
2022/01/30 14:16:34;;;;;;;13.23;3.30;;;;;;;;;;5100561;28;20190;-84
2022/01/30 14:19:00;;;;;;;7.85;3.33;;;;;;;;;;5088991;28;20183;-83
2022/01/30 14:21:31;;;;;;;7.80;2.60;;;;;;;;;;5091984;28;20216;-84
2022/01/30 14:23:57;;;;;;;10.32;3.30;;;;;;;;;;5092138;28;20188;-83
2022/01/30 14:26:27;;;;;;;12.50;4.05;;;;;;;;;;5091662;28;20247;-83
2022/01/30 14:29:07;;;;;;;8.30;2.80;;;;;;;;;;5087355;28;20279;-83
2022/01/30 14:31:33;;;;;;;8.05;3.42;;;;;;;;;;5086743;28;20169;-83
2022/01/30 14:33:59;;;;;;;9.27;3.83;;;;;;;;;;5090951;28;20657;-83
2022/01/30 14:36:29;;;;;;;7.38;2.67;;;;;;;;;;5089022;28;20329;-83
2022/01/30 14:38:55;;;;;;;5.38;3.35;;;;;;;;;;5091882;28;20239;-83
2022/01/30 14:41:21;;;;;;;7.38;2.88;;;;;;;;;;5097191;28;20215;-84
2022/01/30 14:43:47;;;;;;;12.00;3.20;;;;;;;;;;5091328;28;20176;-84
2022/01/30 14:46:14;;;;;;;7.90;3.10;;;;;;;;;;5093841;28;20202;-83
2022/01/30 14:48:40;;;;;;;7.85;2.78;;;;;;;;;;5096962;28;20434;-85
2022/01/30 14:51:06;;;;;;;7.68;4.75;;;;;;;;;;5089169;28;20593;-85
2022/01/30 14:53:33;;;;;;;9.07;3.75;;;;;;;;;;5089693;28;20333;-85
2022/01/30 14:55:59;;;;;;;6.85;3.08;;;;;;;;;;5087686;28;20184;-84
2022/01/30 14:58:25;;;;;;;10.35;3.38;;;;;;;;;;5087231;28;20173;-84
2022/01/30 15:00:55;;;;;;;10.80;2.65;;;;;;;;;;5090812;28;20171;-85
2022/01/30 15:03:22;;;;;;;9.63;2.83;;;;;;;;;;5093525;28;20187;-85
2022/01/30 15:05:48;;;;;;;10.18;2.92;;;;;;;;;;5091164;28;20176;-85
2022/01/30 15:08:14;;;;;;;8.15;2.72;;;;;;;;;;5087840;28;20261;-85
2022/01/30 15:10:40;;;;;;;5.63;2.28;;;;;;;;;;5092823;28;20191;-84
2022/01/30 15:13:11;;;;;;;7.07;2.33;;;;;;;;;;5102841;28;20183;-84
2022/01/30 15:15:39;;;;;;;10.88;2.70;;;;;;;;;;5098592;28;20192;-84
2022/01/30 15:18:12;;;;;;;4.05;2.38;;;;;;;;;;5094824;28;20661;-85
2022/01/30 15:20:38;;;;;;;6.68;3.53;;;;;;;;;;5099741;28;20188;-83
2022/01/30 15:23:04;;;;;;;7.45;2.47;;;;;;;;;;5094059;28;20224;-83
2022/01/30 15:25:30;;;;;;;7.60;2.75;;;;;;;;;;5093201;28;20171;-85
2022/01/30 15:27:56;;;;;;;8.02;3.83;;;;;;;;;;5089304;28;20252;-85
2022/01/30 15:30:22;;;;;;;11.77;3.27;;;;;;;;;;5098309;28;20199;-84